Weston, WY

12:59 PM MDT on September 20, 2014 (GMT -0600)
Gillette-Campbell County | Change Station
CLOSE
Current Station
Airport
Location: Gillette,
Elevation: 4364 ft
Nearby Weather Stations

Elev 4364 ft 44.34 °N, 105.54 °W | Updated 1 hour ago

Clear
Clear
70 °F
Feels Like 70 °F
N
22
Wind Variable Wind from NNW
Gusts 30 mph

Today
High -- | Low -- °F
--% Chance of Precip.
Yesterday
High -- | Low -- °F
Precip. -- in
6:47 AM 7:03 PM
Waning Crescent, 11% visible
Pressure 30.16 in
Visibility 10.0 miles
Clouds Clear
Dew Point 41 °F
Humidity 35%
Rainfall 0.00 in
Snow Depth 0 in , 0 in , 1 in
UV 7 out of 12
Pollen 5.30 out of 12
Air Quality Not available.
Flu Activity Not available.
METAR KGCC 201753Z AUTO 33019G26KT 10SM CLR 21/05 A3025 RMK AO2 PK WND 35026/1745 SLP213 T02110050 10211 20106 51012

More Conditions Fewer Conditions

Pressure 30.16 in
Visibility 10.0 miles
Clouds Clear
Dew Point 41 °F
Humidity 35%
Rainfall 0.00 in
Snow Depth 0 in , 0 in , 1 in
UV 7 out of 12
Pollen 5.30 out of 12
Air Quality Not available.
Flu Activity Not available.
METAR KGCC 201753Z AUTO 33019G26KT 10SM CLR 21/05 A3025 RMK AO2 PK WND 35026/1745 SLP213 T02110050 10211 20106 51012

More Conditions Fewer Conditions

10-Day Weather Forecast

Almanac

Astronomy

Sep. 20, 2014 Rise Set
Actual Time 6:47 AM MDT 7:03 PM MDT
Civil Twilight 6:18 AM MDT 7:32 PM MDT
Nautical Twilight 5:43 AM MDT 8:06 PM MDT
Astronomical Twilight 5:08 AM MDT 8:41 PM MDT
Moon 3:22 AM MDT 5:13 PM MDT
Length of Visible Light 13h 14m
Length of Day
12h 16m
Tomorrow will be 3m 2s shorter.
Waning Crescent, 11% of the Moon is Illuminated
Today
Waning Crescent
Sep 24
New
Oct 1
First Quarter
Oct 8
Full
Oct 15
Last Quarter

Today's Extremes

State Highs State Lows

Community

WunderPhotos

Upload Photos

1,754,923 photos uploaded!

WunderBlogs® & News

Nearby

Snow Depth

Station Depth Elevation
Little Warm 0 in 9370 ft
Sucker Creek 0 in 8880 ft
Hansen Sawmill 1 in 8360 ft
Divide Peak 0 in 8860 ft
Two Ocean Plateau 0 in 9240 ft

Earthquake Activity

City Distance Mag. Time & Date
No recent earthquake activity has been reported nearby.
Minimum magnitude displayed is 2.5.

Coastal Water Temperatures

Place Temperature
No Stations Reporting

Nearby Weather Stations